首页
METAR-TAF:

METAR-TAF

机场 :

奥朗日, 法国

纬度: 44-08N, 经度: 004-50E, 海拔: 60米

当前天气观测

该预报发布于16分钟前的19:30 UTC
风速6节,风向北转西北
温度 13°C
湿度 67%
气压 1017 hPa
能见度10公里或以上
少量云层高于7600英尺

METAR: LFMO 151930Z AUTO 33006KT 9999 FEW076 13/07 Q1017 NOSIG

时间: 21:46 (19:46 UTC)

预报

该预报发布于5小时和46分钟前的14:00 UTC
预报有效从15日的 15点(UTC)到 16日的 15点(UTC)
风速10节,风向北转西北
能见度10公里或以上
1500米以下无云,无积雨云
几率 30% :
短暂存在
从 16日的 01点(UTC)到 16日的 06点(UTC)
能見度: 4000
轻雾

TAF: LFMO 151400Z 1515/1615 34010KT CAVOK PROB30 TEMPO 1601/1606 4000 BR

超过4000个机场的气象观测和天气预报(METAR&TAF报告)。

可查询的气象台以黄色和红色小点在地图上表示。

将鼠标移到小点上方,可查看气象台名称。

然后点击查看天气观测和预报。

如需切换地图:点击带黑十字的绿色按钮放大地图;点击带横线的绿色按钮缩小地图;或者点击绿色箭头查看邻近地区的地图。


METAR-TAF: